Time;durP1;ratioP1;P1;durP2;ratioP2;P2;SDS_P1;SDS_P2;PMS_P1;PMS_P2;Temp;Humidity;BMP_temperature;BMP_pressure;BME280_temperature;BME280_humidity;BME280_pressure;Samples;Min_cycle;Max_cycle;Signal;HPM_P1;HPM_P2
2023/02/10 00:01:41;;;;;;;49.88;24.88;;;-1.10;78.50;;;;;;5027452;28;20041;-58
2023/02/10 00:04:06;;;;;;;48.03;24.30;;;-1.10;79.30;;;;;;5028177;28;20060;-57
2023/02/10 00:06:32;;;;;;;51.10;25.17;;;-1.10;78.60;;;;;;5032612;28;20041;-57
2023/02/10 00:09:00;;;;;;;50.65;24.98;;;-1.10;78.50;;;;;;5026432;28;20129;-55
2023/02/10 00:14:13;;;;;;;47.45;24.83;;;-1.10;78.30;;;;;;5032844;28;20104;-57
2023/02/10 00:16:39;;;;;;;52.25;25.35;;;-1.20;78.10;;;;;;5029333;28;20045;-56
2023/02/10 00:19:04;;;;;;;52.97;25.90;;;-1.20;77.80;;;;;;5029492;28;20083;-57
2023/02/10 00:21:30;;;;;;;51.67;25.92;;;-1.20;77.60;;;;;;5030402;28;20349;-58
2023/02/10 00:23:56;;;;;;;48.70;24.85;;;-1.20;77.60;;;;;;5033148;28;20025;-58
2023/02/10 00:26:22;;;;;;;50.17;25.30;;;-1.20;77.80;;;;;;5029227;28;20483;-55
2023/02/10 00:28:47;;;;;;;48.05;25.23;;;-1.30;77.80;;;;;;5028386;28;20090;-58
2023/02/10 00:31:18;;;;;;;51.85;24.95;;;-1.30;77.80;;;;;;5029694;28;20468;-58
2023/02/10 00:33:44;;;;;;;49.38;24.77;;;-1.20;77.70;;;;;;5030952;28;20044;-56
2023/02/10 00:36:12;;;;;;;56.92;26.15;;;-1.30;77.60;;;;;;5030715;28;20037;-57
2023/02/10 00:38:39;;;;;;;55.05;26.65;;;-1.30;77.70;;;;;;5026897;28;20029;-57
2023/02/10 00:41:09;;;;;;;52.72;25.35;;;-1.30;77.90;;;;;;5024542;28;20390;-57
2023/02/10 00:43:36;;;;;;;50.45;25.50;;;-1.40;78.00;;;;;;5030916;28;20033;-56
2023/02/10 00:46:02;;;;;;;50.55;24.70;;;-1.40;78.00;;;;;;5031517;28;20033;-57
2023/02/10 00:48:27;;;;;;;49.53;25.73;;;-1.40;78.00;;;;;;5036597;28;20043;-56
2023/02/10 00:50:53;;;;;;;54.75;26.20;;;-1.40;78.00;;;;;;5025005;28;20037;-58
2023/02/10 00:53:18;;;;;;;50.92;26.17;;;-1.40;77.90;;;;;;5024678;28;20128;-56
2023/02/10 00:55:44;;;;;;;53.05;25.55;;;-1.40;77.70;;;;;;5025280;28;20082;-58
2023/02/10 00:58:10;;;;;;;52.30;25.75;;;-1.50;77.50;;;;;;5022875;28;20064;-58
2023/02/10 01:00:35;;;;;;;47.03;24.17;;;-1.50;77.60;;;;;;5019712;28;20040;-55
2023/02/10 01:03:01;;;;;;;52.92;25.05;;;-1.60;77.50;;;;;;5022251;28;20543;-57
2023/02/10 01:05:26;;;;;;;52.05;24.48;;;-1.60;77.60;;;;;;5021945;28;20041;-54
2023/02/10 01:07:52;;;;;;;55.75;26.02;;;-1.60;77.80;;;;;;5020276;28;20041;-56
2023/02/10 01:10:19;;;;;;;55.72;26.52;;;-1.70;77.60;;;;;;5024862;28;20937;-57
2023/02/10 01:12:44;;;;;;;56.33;27.55;;;-1.70;77.60;;;;;;5020324;28;20591;-57
2023/02/10 01:15:10;;;;;;;53.15;25.75;;;-1.70;77.40;;;;;;5023485;28;20033;-56
2023/02/10 01:17:36;;;;;;;52.28;25.10;;;-1.80;77.40;;;;;;5028552;28;20048;-54
2023/02/10 01:20:03;;;;;;;52.88;25.92;;;-1.80;77.80;;;;;;5022048;28;20033;-56
2023/02/10 01:22:28;;;;;;;46.42;23.63;;;-1.80;78.20;;;;;;5023212;28;20586;-57
2023/02/10 01:24:54;;;;;;;47.78;23.77;;;-1.80;78.50;;;;;;5031332;28;20045;-57
2023/02/10 01:27:19;;;;;;;52.10;25.40;;;-1.80;78.50;;;;;;5029703;28;20405;-57
2023/02/10 01:29:45;;;;;;;54.25;24.88;;;-1.90;78.40;;;;;;5022238;28;20072;-53
2023/02/10 01:32:10;;;;;;;51.30;24.70;;;-1.90;78.20;;;;;;5026824;28;20040;-57
2023/02/10 01:34:37;;;;;;;53.85;26.90;;;-1.80;78.00;;;;;;5031363;28;20049;-54
2023/02/10 01:37:02;;;;;;;47.55;23.73;;;-1.80;77.90;;;;;;5024169;28;20055;-55
2023/02/10 01:39:28;;;;;;;48.38;25.10;;;-1.90;78.00;;;;;;5026012;28;20041;-58
2023/02/10 01:41:54;;;;;;;49.83;24.40;;;-1.90;78.10;;;;;;5025151;28;20064;-59
2023/02/10 01:44:19;;;;;;;48.22;24.67;;;-2.00;78.10;;;;;;5030069;28;20041;-58
2023/02/10 01:46:46;;;;;;;46.80;23.70;;;-1.90;78.10;;;;;;5017540;28;20033;-59
2023/02/10 01:49:23;;;;;;;45.70;23.73;;;-1.90;78.00;;;;;;5032211;28;20021;-58
2023/02/10 01:51:55;;;;;;;49.22;23.50;;;-2.00;77.80;;;;;;5031762;28;20064;-58
2023/02/10 01:54:29;;;;;;;53.15;24.52;;;-2.00;77.90;;;;;;5034697;28;20057;-58
2023/02/10 01:56:55;;;;;;;;;;;-2.00;77.60;;;;;;5032249;28;20682;-58
2023/02/10 01:59:22;;;;;;;50.03;23.83;;;-2.00;77.80;;;;;;5028030;28;19971;-56
2023/02/10 02:01:49;;;;;;;46.72;23.45;;;-2.10;77.40;;;;;;5017754;28;20040;-59
2023/02/10 02:04:15;;;;;;;47.50;23.85;;;-2.10;77.40;;;;;;5020684;28;20468;-60
2023/02/10 02:06:42;;;;;;;51.40;24.65;;;-2.10;77.50;;;;;;5021568;28;20243;-53
2023/02/10 02:09:09;;;;;;;50.30;24.30;;;-2.10;77.60;;;;;;5021962;28;20037;-59
2023/02/10 02:11:55;;;;;;;49.58;25.75;;;-2.10;77.10;;;;;;5021990;28;20041;-59
2023/02/10 02:14:33;;;;;;;49.80;24.25;;;-2.20;77.60;;;;;;5027447;28;20037;-57
2023/02/10 02:17:12;;;;;;;47.63;24.38;;;-2.20;77.80;;;;;;5022691;28;20056;-56
2023/02/10 02:23:15;;;;;;;50.33;23.40;;;-2.30;77.80;;;;;;5025761;28;20088;-56
2023/02/10 02:26:14;;;;;;;48.40;24.65;;;-2.30;77.80;;;;;;5025779;28;20030;-59
2023/02/10 02:29:13;;;;;;;49.85;24.38;;;-2.30;77.60;;;;;;5024153;28;20390;-57
2023/02/10 02:32:02;;;;;;;50.15;23.75;;;-2.40;77.80;;;;;;5022152;28;21879;-58
2023/02/10 02:34:38;;;;;;;54.40;24.33;;;-2.40;78.10;;;;;;5021696;28;20044;-57
2023/02/10 02:37:12;;;;;;;50.58;24.45;;;-2.50;78.00;;;;;;5024970;28;20072;-58
2023/02/10 02:39:37;;;;;;;48.97;24.10;;;-2.50;78.00;;;;;;5025396;28;20121;-55
2023/02/10 02:42:23;;;;;;;53.20;24.17;;;-2.50;78.00;;;;;;5027274;28;20057;-57
2023/02/10 02:44:57;;;;;;;55.75;26.05;;;-2.50;78.00;;;;;;5028565;28;20037;-54
2023/02/10 02:47:46;;;;;;;53.43;25.43;;;-2.50;78.00;;;;;;5024039;28;20033;-56
2023/02/10 02:50:19;;;;;;;56.45;26.50;;;-2.50;78.00;;;;;;5032084;28;20311;-56
2023/02/10 02:53:13;;;;;;;54.30;25.10;;;-2.50;78.10;;;;;;5029812;28;20393;-57
2023/02/10 02:56:03;;;;;;;56.22;26.27;;;-2.50;78.00;;;;;;5034358;28;20386;-56
2023/02/10 02:59:03;;;;;;;53.85;25.33;;;-2.50;78.10;;;;;;5032672;28;20042;-59
2023/02/10 03:01:36;;;;;;;52.30;23.92;;;-2.50;78.30;;;;;;5024194;28;20040;-52
2023/02/10 03:04:03;;;;;;;52.47;25.40;;;-2.50;78.40;;;;;;5027581;28;20037;-57
2023/02/10 03:06:28;;;;;;;50.50;24.33;;;-2.50;78.60;;;;;;5023709;28;20047;-57
2023/02/10 03:08:54;;;;;;;52.38;25.30;;;-2.50;78.70;;;;;;5023197;28;20041;-56
2023/02/10 03:11:20;;;;;;;52.80;26.55;;;-2.40;79.00;;;;;;5022566;28;20509;-55
2023/02/10 03:13:46;;;;;;;49.03;23.90;;;-2.40;79.20;;;;;;5032645;28;20059;-57
2023/02/10 03:16:12;;;;;;;52.38;25.08;;;-2.40;79.10;;;;;;5026651;28;20044;-56
2023/02/10 03:18:37;;;;;;;53.25;26.17;;;-2.40;79.00;;;;;;5031348;28;20032;-59
2023/02/10 03:21:03;;;;;;;52.35;25.40;;;-2.30;78.80;;;;;;5033026;28;20689;-58
2023/02/10 03:23:29;;;;;;;51.05;24.83;;;-2.30;78.70;;;;;;5028678;28;20033;-58
2023/02/10 03:25:58;;;;;;;49.17;24.42;;;-2.30;78.80;;;;;;5030526;28;20559;-60
2023/02/10 03:28:23;;;;;;;52.00;24.52;;;-2.30;78.90;;;;;;5031419;28;20496;-56
2023/02/10 03:30:50;;;;;;;54.55;26.27;;;-2.30;78.90;;;;;;5026034;28;20140;-58
2023/02/10 03:33:17;;;;;;;55.00;25.63;;;-2.30;78.80;;;;;;5030380;28;20033;-60
2023/02/10 03:35:44;;;;;;;51.40;25.35;;;-2.30;78.70;;;;;;5026844;28;20104;-57
2023/02/10 03:38:10;;;;;;;53.67;26.75;;;-2.20;78.80;;;;;;5026010;28;20524;-58
2023/02/10 03:40:36;;;;;;;54.05;26.40;;;-2.30;78.70;;;;;;5021671;28;20029;-58
2023/02/10 03:43:02;;;;;;;48.78;24.92;;;-2.30;78.60;;;;;;5026730;28;21205;-59
2023/02/10 03:45:28;;;;;;;54.47;24.98;;;-2.30;78.60;;;;;;5028408;28;20163;-55
2023/02/10 03:47:54;;;;;;;54.35;26.98;;;-2.30;78.80;;;;;;5026946;28;20582;-56
2023/02/10 03:50:19;;;;;;;48.75;25.42;;;-2.30;79.00;;;;;;5033066;28;20493;-54
2023/02/10 03:52:45;;;;;;;51.75;24.88;;;-2.40;79.00;;;;;;5033208;28;20476;-58
2023/02/10 03:55:17;;;;;;;52.08;24.95;;;-2.40;79.00;;;;;;5036741;28;20028;-58
2023/02/10 03:57:43;;;;;;;52.95;25.30;;;-2.40;78.90;;;;;;5031366;28;20529;-58
2023/02/10 04:00:09;;;;;;;51.53;24.98;;;-2.40;79.00;;;;;;5029995;28;20045;-55
2023/02/10 04:02:35;;;;;;;54.05;26.10;;;-2.40;78.60;;;;;;5023310;28;20037;-58
2023/02/10 04:05:00;;;;;;;49.97;25.00;;;-2.40;78.60;;;;;;5024209;28;20064;-58
2023/02/10 04:07:26;;;;;;;53.97;24.98;;;-2.40;78.40;;;;;;5024577;28;20067;-57
2023/02/10 04:09:51;;;;;;;51.10;24.50;;;-2.40;78.30;;;;;;5023749;28;20041;-57
2023/02/10 04:12:17;;;;;;;52.60;25.17;;;-2.50;78.30;;;;;;5019436;28;21230;-58
2023/02/10 04:14:43;;;;;;;47.53;23.85;;;-2.50;78.10;;;;;;5027046;28;20041;-56
2023/02/10 04:17:08;;;;;;;51.65;25.50;;;-2.50;78.00;;;;;;5026886;28;20043;-54
2023/02/10 04:19:34;;;;;;;51.35;23.95;;;-2.50;77.80;;;;;;5031526;28;20539;-54
2023/02/10 04:21:59;;;;;;;50.95;24.95;;;-2.50;78.00;;;;;;5029359;28;20037;-57
2023/02/10 04:24:25;;;;;;;49.25;24.27;;;-2.60;78.00;;;;;;5029897;28;20043;-55
2023/02/10 04:26:50;;;;;;;46.10;23.13;;;-2.70;78.20;;;;;;5025724;28;20039;-57
2023/02/10 04:29:16;;;;;;;48.28;24.33;;;-2.70;78.40;;;;;;5024105;28;20168;-58
2023/02/10 04:31:41;;;;;;;48.78;24.38;;;-2.70;78.40;;;;;;5027740;28;20114;-57
2023/02/10 04:34:07;;;;;;;51.70;24.10;;;-2.70;78.30;;;;;;5025740;28;20036;-57
2023/02/10 04:36:32;;;;;;;50.55;24.17;;;-2.80;78.30;;;;;;5026045;28;20034;-58
2023/02/10 04:38:58;;;;;;;49.78;24.08;;;-2.70;78.40;;;;;;5025929;28;20120;-57
2023/02/10 04:41:24;;;;;;;45.97;23.60;;;-2.80;78.30;;;;;;5024761;28;20057;-59
2023/02/10 04:43:49;;;;;;;48.28;22.42;;;-2.80;78.80;;;;;;5024605;28;20048;-56
2023/02/10 04:46:15;;;;;;;49.15;23.90;;;-2.80;79.20;;;;;;5014917;28;20038;-57
2023/02/10 04:48:41;;;;;;;46.88;23.08;;;-2.80;79.50;;;;;;5025122;28;20114;-57
2023/02/10 04:51:11;;;;;;;46.95;22.08;;;-2.80;79.70;;;;;;5033051;28;20040;-57
2023/02/10 04:53:37;;;;;;;49.47;24.02;;;-2.80;79.70;;;;;;5033922;28;20033;-54
2023/02/10 04:56:03;;;;;;;47.90;23.48;;;-2.80;79.60;;;;;;5033200;28;20095;-54
2023/02/10 04:58:30;;;;;;;48.83;23.75;;;-2.80;79.30;;;;;;5029363;28;20041;-55
2023/02/10 05:00:56;;;;;;;43.72;22.42;;;-2.80;79.30;;;;;;5022163;28;20128;-59
2023/02/10 05:03:21;;;;;;;50.22;24.52;;;-2.80;79.20;;;;;;5020346;28;20059;-53
2023/02/10 05:05:47;;;;;;;50.17;23.33;;;-2.80;79.20;;;;;;5027043;28;20057;-54
2023/02/10 05:08:13;;;;;;;46.53;23.05;;;-2.80;79.00;;;;;;5022489;28;20088;-58
2023/02/10 05:10:38;;;;;;;46.13;22.00;;;-2.80;78.70;;;;;;5022189;28;20049;-58
2023/02/10 05:13:04;;;;;;;44.97;23.13;;;-2.80;78.60;;;;;;5022526;28;20033;-58
2023/02/10 05:15:29;;;;;;;49.75;24.13;;;-2.80;78.60;;;;;;5019690;28;20131;-53
2023/02/10 05:17:55;;;;;;;44.85;22.75;;;-2.80;78.60;;;;;;5032036;28;20036;-55
2023/02/10 05:20:21;;;;;;;48.40;24.05;;;-2.80;78.60;;;;;;5026135;28;20033;-56
2023/02/10 05:22:47;;;;;;;47.47;22.63;;;-2.80;78.50;;;;;;5020756;28;20061;-57
2023/02/10 05:25:12;;;;;;;45.28;23.08;;;-2.70;78.60;;;;;;5024414;28;20038;-58
2023/02/10 05:27:38;;;;;;;45.22;23.77;;;-2.70;78.50;;;;;;5023685;28;20148;-53
2023/02/10 05:30:06;;;;;;;58.92;27.98;;;-2.70;78.50;;;;;;5031214;28;20033;-56
2023/02/10 05:32:32;;;;;;;53.92;27.38;;;-2.70;78.50;;;;;;5015858;28;20413;-58
2023/02/10 05:34:57;;;;;;;57.05;28.23;;;-2.70;78.50;;;;;;5014821;28;20034;-59
2023/02/10 05:37:23;;;;;;;58.08;26.83;;;-2.70;78.30;;;;;;5021943;28;20053;-56
2023/02/10 05:39:49;;;;;;;55.53;26.30;;;-2.70;78.10;;;;;;5024665;28;20036;-59
2023/02/10 05:42:14;;;;;;;56.67;26.98;;;-2.70;78.30;;;;;;5032268;28;20140;-58
2023/02/10 05:44:40;;;;;;;58.67;28.17;;;-2.70;78.50;;;;;;5029960;28;20049;-60
2023/02/10 05:47:05;;;;;;;54.22;27.20;;;-2.80;78.40;;;;;;5028109;28;20052;-58
2023/02/10 05:49:31;;;;;;;52.17;25.95;;;-2.80;78.50;;;;;;5029141;28;20749;-59
2023/02/10 05:51:57;;;;;;;52.13;26.70;;;-2.80;78.60;;;;;;5030357;28;20037;-56
2023/02/10 05:54:22;;;;;;;53.53;27.30;;;-2.80;78.80;;;;;;5028200;28;20685;-55
2023/02/10 05:56:49;;;;;;;56.70;27.83;;;-2.80;78.80;;;;;;5031612;28;20106;-58
2023/02/10 05:59:15;;;;;;;53.40;27.38;;;-2.80;78.90;;;;;;5030377;28;20033;-58
2023/02/10 06:01:41;;;;;;;58.10;27.92;;;-2.80;79.00;;;;;;5029445;28;20625;-57
2023/02/10 06:04:07;;;;;;;59.53;27.98;;;-2.80;79.00;;;;;;5029473;28;20106;-57
2023/02/10 06:06:33;;;;;;;56.03;27.80;;;-2.80;78.90;;;;;;5026896;28;20493;-55
2023/02/10 06:08:58;;;;;;;56.05;27.63;;;-2.90;78.70;;;;;;5028391;28;20037;-59
2023/02/10 06:11:24;;;;;;;59.10;28.90;;;-2.90;78.60;;;;;;5023677;28;20033;-57
2023/02/10 06:13:49;;;;;;;62.53;30.67;;;-2.90;78.60;;;;;;5028901;28;20563;-55
2023/02/10 06:16:15;;;;;;;67.03;31.83;;;-2.90;78.50;;;;;;5029466;28;20037;-55
2023/02/10 06:18:42;;;;;;;66.60;31.65;;;-2.90;78.30;;;;;;5029302;28;20413;-59
2023/02/10 06:21:08;;;;;;;67.63;31.83;;;-2.90;78.10;;;;;;5027658;28;20026;-58
2023/02/10 06:23:34;;;;;;;67.63;31.38;;;-3.00;78.00;;;;;;5022855;28;20092;-58
2023/02/10 06:26:00;;;;;;;65.20;30.27;;;-3.00;77.90;;;;;;5023387;28;20782;-57
2023/02/10 06:28:26;;;;;;;62.28;30.63;;;-3.10;77.90;;;;;;5025457;28;20041;-58
2023/02/10 06:30:52;;;;;;;67.32;30.92;;;-3.10;77.80;;;;;;5024530;28;20041;-58
2023/02/10 06:33:18;;;;;;;59.53;28.52;;;-3.10;77.70;;;;;;5028955;28;20039;-54
2023/02/10 06:35:45;;;;;;;56.80;27.48;;;-3.10;77.70;;;;;;5029578;28;20516;-57
2023/02/10 06:38:10;;;;;;;53.30;26.25;;;-3.20;77.60;;;;;;5030634;28;20038;-57
2023/02/10 06:40:36;;;;;;;56.17;27.85;;;-3.20;77.80;;;;;;5031006;28;20038;-59
2023/02/10 06:43:02;;;;;;;54.75;28.08;;;-3.30;77.80;;;;;;5030146;28;20064;-56
2023/02/10 06:45:28;;;;;;;52.20;25.23;;;-3.30;77.80;;;;;;5026644;28;20041;-56
2023/02/10 06:47:54;;;;;;;53.58;26.52;;;-3.30;78.00;;;;;;5030145;28;20029;-57
2023/02/10 06:50:20;;;;;;;49.83;25.85;;;-3.30;78.10;;;;;;5031844;28;20102;-57
2023/02/10 06:52:47;;;;;;;59.35;28.92;;;-3.30;78.30;;;;;;5030978;28;20030;-56
2023/02/10 06:55:12;;;;;;;50.97;25.67;;;-3.40;78.70;;;;;;5031250;28;20469;-57
2023/02/10 06:57:38;;;;;;;53.28;26.40;;;-3.30;79.30;;;;;;5028736;28;20107;-57
2023/02/10 07:00:05;;;;;;;52.03;25.70;;;-3.30;79.50;;;;;;5026674;28;20087;-59
2023/02/10 07:02:31;;;;;;;60.83;28.48;;;-3.30;79.50;;;;;;5028623;28;20060;-56
2023/02/10 07:04:56;;;;;;;51.72;27.02;;;-3.30;79.40;;;;;;5027701;28;20102;-58
2023/02/10 07:07:22;;;;;;;53.05;26.45;;;-3.20;79.30;;;;;;5030936;28;20489;-59
2023/02/10 07:09:48;;;;;;;53.08;24.50;;;-3.20;79.20;;;;;;5032392;28;20030;-59
2023/02/10 07:12:13;;;;;;;56.00;27.05;;;-3.20;79.10;;;;;;5028050;28;20497;-56
2023/02/10 07:14:39;;;;;;;55.58;27.70;;;-3.20;79.10;;;;;;5032339;28;20041;-57
2023/02/10 07:17:04;;;;;;;55.60;28.20;;;-3.10;79.00;;;;;;5032028;28;20547;-58
2023/02/10 07:19:31;;;;;;;58.78;27.70;;;-3.20;79.00;;;;;;5031572;28;20059;-55
2023/02/10 07:21:57;;;;;;;54.50;27.02;;;-3.10;79.20;;;;;;5031365;28;20414;-59
2023/02/10 07:24:22;;;;;;;58.20;28.83;;;-3.10;79.30;;;;;;5029504;28;21683;-58
2023/02/10 07:26:48;;;;;;;61.88;30.05;;;-3.10;79.40;;;;;;5026850;28;20033;-58
2023/02/10 07:29:14;;;;;;;66.95;30.90;;;-3.10;79.40;;;;;;5033196;28;20033;-56
2023/02/10 07:31:39;;;;;;;64.57;30.98;;;-3.10;79.40;;;;;;5032330;28;20041;-57
2023/02/10 07:34:05;;;;;;;77.30;35.72;;;-3.10;79.40;;;;;;5030089;28;20037;-57
2023/02/10 07:36:30;;;;;;;72.40;34.25;;;-3.10;79.50;;;;;;5027524;28;20033;-57
2023/02/10 07:38:56;;;;;;;66.93;32.83;;;-3.10;79.70;;;;;;5028602;28;20044;-56
2023/02/10 07:41:21;;;;;;;76.93;34.58;;;-3.10;79.90;;;;;;5029174;28;20038;-59
2023/02/10 07:43:47;;;;;;;73.68;33.97;;;-3.00;80.20;;;;;;5029907;28;20740;-56
2023/02/10 07:46:14;;;;;;;70.68;33.00;;;-3.00;80.20;;;;;;5031398;28;20513;-57
2023/02/10 07:48:40;;;;;;;75.00;36.85;;;-2.90;80.40;;;;;;5030510;28;20033;-58
2023/02/10 07:51:05;;;;;;;66.88;32.70;;;-2.90;80.40;;;;;;5028818;28;20037;-57
2023/02/10 07:53:31;;;;;;;67.05;33.25;;;-2.80;80.70;;;;;;5028661;28;20029;-59
2023/02/10 07:56:00;;;;;;;69.95;33.00;;;-2.80;80.80;;;;;;5032179;28;20478;-57
2023/02/10 07:58:25;;;;;;;63.33;30.88;;;-2.70;81.10;;;;;;5032688;28;20034;-56
2023/02/10 08:00:51;;;;;;;64.22;31.27;;;-2.70;80.90;;;;;;5026970;28;20040;-57
2023/02/10 08:03:17;;;;;;;63.22;30.75;;;-2.60;81.10;;;;;;5029518;28;20034;-57
2023/02/10 08:05:42;;;;;;;59.78;28.00;;;-2.60;81.10;;;;;;5030646;28;20036;-57
2023/02/10 08:08:09;;;;;;;60.50;29.10;;;-2.50;81.30;;;;;;5029684;28;20029;-56
2023/02/10 08:10:37;;;;;;;55.25;27.13;;;-2.50;81.20;;;;;;5026821;28;20049;-56
2023/02/10 08:13:02;;;;;;;59.10;28.42;;;-2.40;81.20;;;;;;5030085;28;20513;-56
2023/02/10 08:15:28;;;;;;;60.08;29.23;;;-2.30;81.30;;;;;;5029915;28;20049;-58
2023/02/10 08:17:54;;;;;;;62.00;29.63;;;-2.30;81.40;;;;;;5032124;28;20052;-54
2023/02/10 08:20:19;;;;;;;57.80;29.60;;;-2.20;81.60;;;;;;5030695;28;20706;-56
2023/02/10 08:22:45;;;;;;;60.65;29.83;;;-2.20;81.70;;;;;;5028985;28;20044;-56
2023/02/10 08:25:10;;;;;;;58.35;30.10;;;-2.10;81.90;;;;;;5030338;28;20056;-58
2023/02/10 08:27:36;;;;;;;61.00;30.77;;;-2.00;82.00;;;;;;5031672;28;20037;-58
2023/02/10 08:30:05;;;;;;;64.13;30.13;;;-2.00;82.10;;;;;;5032038;28;20033;-59
2023/02/10 08:32:30;;;;;;;59.65;30.23;;;-1.90;82.10;;;;;;5030094;28;20198;-56
2023/02/10 08:34:56;;;;;;;57.80;29.27;;;-1.80;82.20;;;;;;5030537;28;20123;-55
2023/02/10 08:37:22;;;;;;;64.55;31.10;;;-1.80;82.30;;;;;;5030328;28;20223;-55
2023/02/10 08:39:48;;;;;;;59.97;30.17;;;-1.70;82.50;;;;;;5027198;28;20142;-57
2023/02/10 08:42:13;;;;;;;63.58;31.35;;;-1.60;82.60;;;;;;5029708;28;20390;-56
2023/02/10 08:44:39;;;;;;;61.00;31.25;;;-1.60;82.70;;;;;;5029570;28;20060;-57
2023/02/10 08:47:04;;;;;;;60.40;29.48;;;-1.50;82.80;;;;;;5030879;28;20038;-58
2023/02/10 08:49:30;;;;;;;65.38;32.83;;;-1.40;83.00;;;;;;5027751;28;20512;-57
2023/02/10 08:51:56;;;;;;;61.72;29.83;;;-1.40;83.10;;;;;;5029643;28;20030;-57
2023/02/10 08:54:22;;;;;;;65.97;31.45;;;-1.30;83.20;;;;;;5031694;28;20038;-58
2023/02/10 08:56:48;;;;;;;61.15;31.63;;;-1.20;83.40;;;;;;5030092;28;20041;-54
2023/02/10 08:59:14;;;;;;;57.50;29.65;;;-1.20;83.50;;;;;;5030946;28;20129;-59
2023/02/10 09:01:40;;;;;;;60.40;31.15;;;-1.10;83.60;;;;;;5025661;28;20307;-58
2023/02/10 09:04:06;;;;;;;61.30;31.25;;;-1.00;83.70;;;;;;5030763;28;20508;-57
2023/02/10 09:06:38;;;;;;;66.10;32.60;;;-0.90;83.70;;;;;;5030980;28;20041;-57
2023/02/10 09:09:09;;;;;;;60.65;29.95;;;-0.80;83.90;;;;;;5029347;28;20476;-60
2023/02/10 09:11:35;;;;;;;59.03;30.27;;;-0.80;84.70;;;;;;5028236;28;20497;-58
2023/02/10 09:14:01;;;;;;;61.47;30.73;;;-0.70;83.70;;;;;;5029517;28;20034;-59
2023/02/10 09:16:27;;;;;;;60.50;31.23;;;-0.60;83.70;;;;;;5030112;28;20052;-59
2023/02/10 09:18:53;;;;;;;51.45;28.23;;;-0.50;83.70;;;;;;5030222;28;20497;-58
2023/02/10 09:21:18;;;;;;;60.72;29.13;;;-0.40;83.70;;;;;;5028293;28;20685;-59
2023/02/10 09:23:44;;;;;;;58.03;29.88;;;-0.40;83.60;;;;;;5026765;28;20418;-58
2023/02/10 09:26:10;;;;;;;55.65;29.00;;;-0.30;83.70;;;;;;5031412;28;20128;-60
2023/02/10 09:28:35;;;;;;;61.10;29.85;;;-0.20;83.90;;;;;;5029606;28;20111;-58
2023/02/10 09:31:05;;;;;;;58.20;29.25;;;-0.10;83.90;;;;;;5030065;28;20056;-57
2023/02/10 09:33:30;;;;;;;57.83;28.55;;;0.00;84.00;;;;;;5030792;28;20091;-59
2023/02/10 09:35:56;;;;;;;50.88;27.20;;;0.00;83.70;;;;;;5026984;28;20132;-56
2023/02/10 09:38:22;;;;;;;55.38;28.23;;;0.10;83.70;;;;;;5026379;28;20112;-60
2023/02/10 09:41:03;;;;;;;56.67;29.30;;;0.20;83.70;;;;;;5028957;28;20040;-57
2023/02/10 09:44:03;;;;;;;49.45;26.85;;;0.30;84.00;;;;;;5028983;28;20464;-57
2023/02/10 09:46:35;;;;;;;53.00;28.13;;;0.40;84.00;;;;;;5025954;28;20041;-57
2023/02/10 09:49:13;;;;;;;63.20;32.38;;;0.50;83.60;;;;;;5028102;28;20508;-53
2023/02/10 09:51:52;;;;;;;57.17;30.08;;;0.60;83.50;;;;;;5025615;28;20041;-57
2023/02/10 09:54:18;;;;;;;56.08;28.95;;;0.70;83.80;;;;;;5026966;28;20037;-56
2023/02/10 09:56:45;;;;;;;58.55;28.45;;;0.70;83.70;;;;;;5025996;28;20052;-58
2023/02/10 09:59:15;;;;;;;54.17;28.73;;;0.80;83.70;;;;;;5027643;28;20120;-55
2023/02/10 10:01:49;;;;;;;61.08;30.35;;;0.90;83.60;;;;;;5030121;28;20037;-58
2023/02/10 10:04:17;;;;;;;61.30;31.48;;;1.00;83.90;;;;;;5028944;28;20509;-57
2023/02/10 10:06:46;;;;;;;56.80;30.92;;;1.10;83.70;;;;;;5025607;28;20045;-57
2023/02/10 10:09:32;;;;;;;59.85;30.95;;;1.20;83.80;;;;;;5028701;28;20041;-57
2023/02/10 10:11:59;;;;;;;55.13;29.35;;;1.30;84.00;;;;;;5023136;28;20512;-56
2023/02/10 10:14:35;;;;;;;55.50;30.40;;;1.40;83.70;;;;;;5027824;28;20037;-56
2023/02/10 10:17:19;;;;;;;55.08;29.40;;;1.50;83.60;;;;;;5024136;28;20039;-59
2023/02/10 10:19:51;;;;;;;51.10;27.63;;;1.70;83.90;;;;;;5030418;28;20040;-53
2023/02/10 10:22:54;;;;;;;52.97;28.40;;;1.80;83.50;;;;;;5025567;28;20040;-56
2023/02/10 10:25:34;;;;;;;55.25;27.42;;;1.90;83.30;;;;;;5027907;28;20037;-56
2023/02/10 10:28:18;;;;;;;49.00;25.15;;;2.10;83.20;;;;;;5029394;28;20041;-58
2023/02/10 10:30:45;;;;;;;42.53;23.48;;;2.20;83.00;;;;;;5026547;28;20049;-56
2023/02/10 10:33:24;;;;;;;41.85;23.25;;;2.40;82.80;;;;;;5028551;28;20041;-57
2023/02/10 10:35:51;;;;;;;41.33;22.98;;;2.50;82.50;;;;;;5025110;28;20302;-57
2023/02/10 10:38:22;;;;;;;46.78;25.35;;;2.60;82.30;;;;;;5025995;28;20421;-57
2023/02/10 10:40:51;;;;;;;42.03;22.38;;;2.70;81.80;;;;;;5028810;28;20034;-59
2023/02/10 10:43:23;;;;;;;43.33;22.70;;;2.90;81.50;;;;;;5029506;28;20053;-56
2023/02/10 10:45:53;;;;;;;45.10;23.35;;;3.00;80.90;;;;;;5027673;28;20028;-56
2023/02/10 10:48:26;;;;;;;40.03;22.23;;;3.10;80.70;;;;;;5029127;28;20602;-57
2023/02/10 10:50:59;;;;;;;38.63;21.13;;;3.20;80.10;;;;;;5025821;28;20495;-58
2023/02/10 10:53:56;;;;;;;41.90;21.92;;;3.30;79.70;;;;;;5025032;28;20037;-56
2023/02/10 10:56:21;;;;;;;42.65;22.23;;;3.40;79.70;;;;;;5017066;28;20037;-53
2023/02/10 10:58:47;;;;;;;41.72;22.27;;;3.50;79.40;;;;;;5026952;28;20057;-58
2023/02/10 11:01:15;;;;;;;37.38;21.98;;;3.60;79.00;;;;;;5029844;28;20044;-57
2023/02/10 11:03:41;;;;;;;39.42;22.52;;;3.70;78.60;;;;;;5026519;28;20538;-56
2023/02/10 11:06:13;;;;;;;43.28;23.05;;;3.70;78.40;;;;;;5027575;28;20215;-55
2023/02/10 11:08:58;;;;;;;39.78;23.10;;;3.80;78.10;;;;;;5024736;28;20056;-55
2023/02/10 11:11:35;;;;;;;;;;;3.90;77.90;;;;;;5027119;28;20525;-53
2023/02/10 11:14:01;;;;;;;38.55;20.05;;;4.00;77.60;;;;;;5025608;28;20171;-54
2023/02/10 11:16:28;;;;;;;44.25;22.17;;;4.10;78.20;;;;;;5032414;28;20040;-57
2023/02/10 11:18:59;;;;;;;42.40;22.25;;;4.10;77.60;;;;;;5029700;28;20033;-59
2023/02/10 11:21:36;;;;;;;44.60;23.63;;;4.20;77.40;;;;;;5032869;28;20108;-56
2023/02/10 11:24:01;;;;;;;44.00;22.05;;;4.30;76.40;;;;;;5032496;28;20056;-55
2023/02/10 11:26:28;;;;;;;38.55;22.70;;;4.30;76.40;;;;;;5032776;28;20521;-57
2023/02/10 11:28:54;;;;;;;42.47;23.50;;;4.40;75.90;;;;;;5030364;28;20332;-57
2023/02/10 11:31:32;;;;;;;42.63;23.80;;;4.40;75.50;;;;;;5031153;28;20041;-59
2023/02/10 11:34:02;;;;;;;41.28;24.00;;;4.40;75.30;;;;;;5030688;28;20037;-58
2023/02/10 11:36:36;;;;;;;42.20;23.85;;;4.40;75.90;;;;;;5034135;28;20952;-57
2023/02/10 11:39:05;;;;;;;43.38;23.55;;;4.50;75.50;;;;;;5029430;28;20401;-57
2023/02/10 11:41:32;;;;;;;43.75;23.45;;;4.50;75.70;;;;;;5035034;28;20122;-58
2023/02/10 11:43:59;;;;;;;39.45;21.88;;;4.60;75.90;;;;;;5025242;28;20513;-55
2023/02/10 11:46:27;;;;;;;42.63;23.17;;;4.70;75.90;;;;;;5031956;28;20095;-57
2023/02/10 11:49:02;;;;;;;44.15;23.92;;;4.70;75.40;;;;;;5029380;28;20045;-57
2023/02/10 11:51:29;;;;;;;43.92;24.25;;;4.80;74.60;;;;;;5028557;28;20417;-58
2023/02/10 11:53:56;;;;;;;46.70;24.17;;;4.80;74.30;;;;;;5029454;28;20400;-55
2023/02/10 11:59:31;;;;;;;40.28;23.02;;;4.90;75.10;;;;;;5028626;28;20457;-58
2023/02/10 12:02:21;;;;;;;41.70;23.58;;;5.00;74.40;;;;;;5031042;28;20034;-57
2023/02/10 12:05:02;;;;;;;45.83;24.35;;;5.00;73.10;;;;;;5031187;28;20037;-58
2023/02/10 12:07:40;;;;;;;46.10;23.73;;;5.00;72.90;;;;;;5029104;28;20509;-58
2023/02/10 12:10:30;;;;;;;49.08;24.58;;;5.00;72.20;;;;;;5028946;28;20497;-58
2023/02/10 12:13:13;;;;;;;43.53;24.27;;;5.10;71.90;;;;;;5030311;28;20046;-58
2023/02/10 12:15:44;;;;;;;77.97;24.92;;;5.10;71.50;;;;;;5027782;28;20121;-58
2023/02/10 12:18:34;;;;;;;44.20;23.70;;;5.10;72.00;;;;;;5033532;28;20034;-55
2023/02/10 12:21:29;;;;;;;44.38;24.73;;;5.10;72.20;;;;;;5032228;28;20041;-56
2023/02/10 12:24:03;;;;;;;42.88;23.33;;;5.10;72.40;;;;;;5030443;28;20144;-58
2023/02/10 12:26:39;;;;;;;49.55;23.35;;;5.20;73.10;;;;;;5032371;28;20500;-58
2023/02/10 12:29:17;;;;;;;40.92;22.65;;;5.30;73.10;;;;;;5030714;28;20566;-56
2023/02/10 12:32:04;;;;;;;42.05;22.85;;;5.30;72.50;;;;;;5030239;28;20063;-57
2023/02/10 12:34:42;;;;;;;369.13;38.30;;;5.40;72.40;;;;;;5031491;28;20045;-55
2023/02/10 12:37:28;;;;;;;52.78;22.38;;;5.40;72.20;;;;;;5032143;28;20634;-58
2023/02/10 12:40:13;;;;;;;39.63;22.13;;;5.50;72.40;;;;;;5029266;28;20037;-57
2023/02/10 12:42:55;;;;;;;38.35;20.60;;;5.50;72.20;;;;;;5032529;28;20044;-58
2023/02/10 12:45:49;;;;;;;35.13;21.13;;;5.60;70.90;;;;;;5028121;28;20041;-59
2023/02/10 12:48:23;;;;;;;36.10;19.95;;;5.60;70.40;;;;;;5028886;28;20397;-57
2023/02/10 12:51:07;;;;;;;36.23;20.30;;;5.60;70.70;;;;;;5027462;28;20037;-54